CheckWX is a tool to help pilots better visualize weather data.  It is not intended as a substitute for an official pre-flight weather briefing.

10:06:39 UTC

AGGA TAF
Auki Airport
Auki, Solomon Islands
TAF AGGA 252320Z 2600/2624 16010KT 9999 SCT019 SCT030 PROB30 INTER 2602/2607 5000 TSSH BKN017 FEW018CB Q 1010 1008 1007 1009

Jun-26@
00:00 UTC

Jun-26 @ 00:00 UTC

Jun-27@
00:00 UTC

Jun-27 @ 00:00 UTC

TAF AGGA 252320Z 2600/2624 16010KT 9999 SCT019 SCT030
Wind
  • 160° at 10 KTS
Cloud Levels
  • Scattered at 1,900' AGL
  • Scattered at 3,000' AGL

Jun-26@
02:00 UTC

Jun-26 @ 02:00 UTC

Jun-26@
07:00 UTC

Jun-26 @ 07:00 UTC

PROB30 INTER 2602/2607 5000 TSSH BKN017 FEW018CB Q 1010 1008 1007 1009

Expired

Conditions
Thunderstorm
Cloud Levels
  • Broken at 1,700' AGL
  • Few at 1,800' AGL